FW3878 Weather Reports


Display with metric or nautical units.
time (UTC)temp
F
wind
direction
speed
MPH
gust
MPH
rain 1hr
in
rain 24hr
in
rain mn
in
humidity
%
barometer
mb
20190819180517 63 270 1.0 1.0 0.00 0.00 0.00 84 1013.6
20190819175517 64 0.0 1.0 0.00 0.00 0.00 82 1013.5
20190819174517 64 0.0 1.0 0.00 0.00 0.00 82 1013.5
20190819173517 65 0.0 0.0 0.00 0.00 0.00 81 1013.3
20190819172517 65 0.0 0.0 0.00 0.00 0.00 80 1013.2
20190819171517 66 0.0 1.0 0.00 0.00 0.00 80 1013.2
20190819170517 66 0.0 1.0 0.00 0.00 0.00 79 1013.1
20190819165517 66 0.0 1.0 0.00 0.00 0.00 78 1013.1
20190819164517 66 0.0 1.0 0.00 0.00 0.00 79 1013.0
20190819163518 66 0.0 1.0 0.00 0.00 0.00 76 1013.1
20190819162517 66 270 1.0 4.0 0.00 0.00 0.00 75 1013.1
20190819161517 67 270 1.0 3.0 0.00 0.00 0.00 76 1012.9
20190819160517 67 247 1.0 5.0 0.00 0.00 0.00 75 1012.9
20190819155517 67 0.0 2.0 0.00 0.00 0.00 74 1012.7
20190819154517 67 292 1.0 3.0 0.00 0.00 0.00 74 1012.6
20190819153517 68 247 1.0 2.0 0.00 0.00 0.00 73 1012.5
20190819152518 68 292 1.0 4.0 0.00 0.00 0.00 73 1012.5
20190819151517 68 315 3.0 6.0 0.00 0.00 0.00 72 1012.2
20190819150517 68 270 3.0 7.0 0.00 0.00 0.00 72 1012.0
20190819145517 68 292 2.0 7.0 0.00 0.00 0.00 73 1012.0
20190819144517 69 292 4.0 9.0 0.00 0.00 0.00 72 1012.1
20190819143518 69 292 2.0 6.0 0.00 0.00 0.00 74 1012.1
20190819142516 69 292 3.0 8.0 0.00 0.00 0.00 74 1011.9
20190819141516 70 315 3.0 7.0 0.00 0.00 0.00 74 1011.9
20190819140516 70 270 3.0 7.0 0.00 0.00 0.00 73 1011.8
20190819135516 70 270 3.0 8.0 0.00 0.00 0.00 72 1011.7
20190819134516 71 292 3.0 8.0 0.00 0.00 0.00 72 1011.5
20190819133517 71 225 3.0 8.0 0.00 0.00 0.00 71 1011.2
20190819132517 71 270 3.0 7.0 0.00 0.00 0.00 72 1011.1
20190819131516 71 292 4.0 9.0 0.00 0.00 0.00 72 1011.1
20190819130517 71 292 3.0 7.0 0.00 0.00 0.00 73 1010.9
20190819125516 71 292 2.0 7.0 0.00 0.00 0.00 72 1010.9
20190819124516 71 315 4.0 8.0 0.00 0.00 0.00 70 1010.7
20190819123517 72 202 3.0 8.0 0.00 0.00 0.00 73 1010.6
20190819122516 71 225 3.0 5.0 0.00 0.00 0.00 73 1010.4
20190819121516 72 270 5.0 10.0 0.00 0.00 0.00 71 1010.3
20190819120516 72 292 4.0 6.0 0.00 0.00 0.00 71 1010.2
20190819115516 73 270 3.0 7.0 0.00 0.00 0.00 71 1010.0
20190819114516 73 270 5.0 11.0 0.00 0.00 0.00 70 1009.9
20190819113516 74 247 4.0 10.0 0.00 0.00 0.00 69 1009.7
20190819112516 73 225 3.0 8.0 0.00 0.00 0.00 70 1009.7
20190819111516 74 270 5.0 12.0 0.00 0.00 0.00 67 1009.5
20190819110516 75 225 3.0 8.0 0.00 0.00 0.00 64 1009.3
20190819105516 76 225 4.0 9.0 0.00 0.00 0.00 60 1008.9
20190819104516 76 225 4.0 11.0 0.00 0.00 0.00 61 1008.8
20190819103517 75 225 6.0 12.0 0.00 0.00 0.00 61 1008.7
20190819102516 75 225 5.0 12.0 0.00 0.00 0.00 63 1008.7
20190819101516 75 202 6.0 12.0 0.00 0.00 0.00 64 1008.7
20190819100518 74 202 5.0 11.0 0.00 0.00 0.00 67 1008.6
20190819095516 74 225 5.0 11.0 0.00 0.00 0.00 68 1008.5
20190819094516 74 225 6.0 11.0 0.00 0.00 0.00 66 1008.3
20190819093516 73 202 4.0 8.0 0.00 0.00 0.00 66 1008.2
20190819092516 73 225 4.0 10.0 0.00 0.00 0.00 67 1008.1
20190819091517 73 225 4.0 9.0 0.00 0.00 0.00 67 1008.1
20190819090516 74 247 5.0 8.0 0.00 0.00 0.00 67 1008.0
20190819085516 73 202 4.0 10.0 0.00 0.00 0.00 70 1008.0
20190819084516 72 202 3.0 7.0 0.00 0.00 0.00 71 1007.9
20190819083516 72 225 4.0 9.0 0.00 0.00 0.00 71 1007.9
20190819082516 72 225 4.0 9.0 0.00 0.00 0.00 70 1007.8
20190819081517 72 225 3.0 7.0 0.00 0.00 0.00 70 1007.7
20190819080516 72 225 5.0 10.0 0.00 0.00 0.00 68 1007.6
20190819075516 71 225 3.0 6.0 0.00 0.00 0.00 70 1007.5
20190819074516 71 225 6.0 10.0 0.00 0.00 0.00 69 1007.4
20190819073517 72 202 3.0 8.0 0.00 0.00 0.00 69 1007.3
20190819072516 71 225 2.0 7.0 0.00 0.00 0.00 70 1007.2
20190819071516 71 225 5.0 9.0 0.00 0.00 0.00 70 1007.1
20190819070516 70 202 3.0 7.0 0.00 0.00 0.00 72 1007.0
20190819065516 68 202 2.0 6.0 0.00 0.00 0.00 74 1006.9
20190819064516 68 247 2.0 7.0 0.00 0.00 0.00 74 1006.9
20190819063516 68 202 1.0 4.0 0.00 0.00 0.00 74 1006.8
20190819062516 67 202 3.0 7.0 0.00 0.00 0.00 74 1006.7
20190819061516 67 225 3.0 7.0 0.00 0.00 0.00 74 1006.6
20190819060517 67 180 3.0 11.0 0.00 0.00 0.00 74 1006.8
20190819055516 67 180 2.0 7.0 0.00 0.00 0.00 74 1006.7
20190819054516 67 135 2.0 4.0 0.00 0.00 0.00 73 1006.5
20190819053516 67 247 3.0 9.0 0.00 0.00 0.00 73 1006.5
20190819052517 67 202 3.0 10.0 0.00 0.00 0.00 72 1006.5
20190819051516 67 157 3.0 9.0 0.00 0.00 0.00 72 1006.5
20190819050516 66 157 3.0 9.0 0.00 0.00 0.00 72 1006.3
20190819045516 66 180 2.0 5.0 0.00 0.00 0.00 74 1006.1
20190819044516 66 225 2.0 8.0 0.00 0.00 0.00 74 1006.1
20190819043516 66 225 2.0 6.0 0.00 0.00 0.00 73 1005.9
20190819042516 66 157 3.0 6.0 0.00 0.00 0.00 72 1006.0
20190819041516 66 180 2.0 9.0 0.00 0.00 0.00 71 1006.0
20190819040515 66 180 2.0 8.0 0.00 0.00 0.00 71 1006.1
20190819035516 66 225 2.0 6.0 0.00 0.00 0.00 71 1006.2
20190819034516 66 135 3.0 11.0 0.00 0.00 0.00 71 1006.1
20190819033519 66 157 2.0 7.0 0.00 0.00 0.00 70 1006.0
20190819032516 66 157 3.0 7.0 0.00 0.00 0.00 70 1006.0
20190819031515 66 157 3.0 8.0 0.00 0.00 0.00 70 1006.0
20190819030516 66 135 4.0 9.0 0.00 0.00 0.00 69 1006.0
20190819025516 66 180 3.0 9.0 0.00 0.00 0.00 69 1006.0
20190819024516 66 157 4.0 8.0 0.00 0.00 0.00 69 1006.1
20190819023516 66 157 2.0 6.0 0.00 0.00 0.00 70 1006.1
20190819022515 65 135 2.0 6.0 0.00 0.00 0.00 70 1006.1
20190819021516 65 112 1.0 5.0 0.00 0.00 0.00 70 1006.2
20190819020515 66 112 2.0 6.0 0.00 0.00 0.00 69 1006.1
20190819015516 65 202 3.0 9.0 0.00 0.00 0.00 69 1006.2
20190819014515 65 135 2.0 5.0 0.00 0.00 0.00 69 1006.3
20190819013516 65 112 3.0 8.0 0.00 0.00 0.00 69 1006.3
20190819012516 66 157 2.0 7.0 0.00 0.00 0.00 69 1006.3
20190819011516 66 135 3.0 7.0 0.00 0.00 0.00 69 1006.4
20190819010516 66 135 2.0 7.0 0.00 0.00 0.00 69 1006.6
20190819005516 66 135 3.0 11.0 0.00 0.00 0.00 68 1006.7
20190819004516 66 157 3.0 7.0 0.00 0.00 0.00 68 1006.7
20190819003515 66 135 2.0 8.0 0.00 0.00 0.00 68 1006.9
20190819002516 66 112 2.0 6.0 0.00 0.00 0.00 68 1006.8
20190819001516 66 157 3.0 7.0 0.00 0.00 0.00 67 1007.0
20190819000518 66 112 3.0 11.0 0.00 0.00 0.00 67 1007.0
20190818235516 66 157 3.0 8.0 0.00 0.00 0.00 67 1007.1
20190818234515 66 270 2.0 6.0 0.00 0.00 0.00 68 1007.1
20190818233515 66 135 3.0 7.0 0.00 0.00 0.00 68 1007.2
20190818232515 66 157 2.0 5.0 0.00 0.00 0.00 68 1007.2
20190818231516 66 180 2.0 7.0 0.00 0.00 0.00 68 1007.1
20190818230516 65 135 3.0 13.0 0.00 0.00 0.00 67 1007.3
20190818225516 65 112 2.0 6.0 0.00 0.00 0.00 67 1007.4
20190818224515 65 90 2.0 6.0 0.00 0.00 0.00 67 1007.4
20190818223518 66 247 1.0 6.0 0.00 0.00 0.00 67 1007.5
20190818222517 66 90 2.0 7.0 0.00 0.00 0.00 67 1007.6
20190818221518 66 135 2.0 7.0 0.00 0.00 0.00 67 1007.6
20190818220517 66 247 2.0 8.0 0.00 0.00 0.00 66 1007.7
20190818215517 66 90 2.0 6.0 0.00 0.00 0.00 66 1007.8
20190818214517 66 112 2.0 9.0 0.00 0.00 0.00 66 1007.8
20190818213517 66 135 3.0 10.0 0.00 0.00 0.00 65 1007.8
20190818212517 66 157 2.0 8.0 0.00 0.00 0.00 64 1008.0
20190818211517 67 135 4.0 8.0 0.00 0.00 0.00 64 1008.1
20190818210518 67 135 3.0 9.0 0.00 0.00 0.00 64 1008.0
20190818205517 67 135 3.0 8.0 0.00 0.00 0.00 63 1008.1
20190818204517 67 90 2.0 10.0 0.00 0.00 0.00 63 1008.1
20190818203517 67 157 3.0 7.0 0.00 0.00 0.00 64 1008.1
20190818202517 67 135 4.0 8.0 0.00 0.00 0.00 64 1008.1
20190818201517 67 157 2.0 7.0 0.00 0.00 0.00 65 1008.1
20190818200518 67 90 3.0 9.0 0.00 0.00 0.00 64 1008.1
20190818195518 67 135 2.0 7.0 0.00 0.00 0.00 64 1008.0
20190818194518 67 135 2.0 6.0 0.00 0.00 0.00 64 1008.2
20190818193517 68 112 3.0 7.0 0.00 0.00 0.00 64 1008.1
20190818192517 68 112 2.0 6.0 0.00 0.00 0.00 64 1008.2
20190818191519 68 180 1.0 5.0 0.00 0.00 0.00 64 1008.1
20190818190517 68 157 1.0 2.0 0.00 0.00 0.00 65 1008.2
20190818185518 67 247 2.0 5.0 0.00 0.00 0.00 67 1008.3
20190818184517 67 270 1.0 4.0 0.00 0.00 0.00 68 1008.3
20190818183517 67 157 1.0 2.0 0.00 0.00 0.00 69 1008.3
20190818182517 67 0.0 2.0 0.00 0.00 0.00 72 1008.5
20190818181517 67 0.0 2.0 0.00 0.00 0.00 73 1008.6